This is the latest recevied weather packets stored in our database for station/object K3SV. If no packets are shown the sender has not sent any weather packets the latest 10 day(s).
| Time | Temp. | Humidity | Pressure | Rain* | Wind** | Luminosity | Snow |
|---|---|---|---|---|---|---|---|
| 1777650906 | 30° C | 62% | 1012.9 hPa | 0 mm | - | 704 W/m² | - |
| 1777650603 | 30.56° C | 62% | 1012.8 hPa | 0 mm | - | 701 W/m² | - |
| 1777650301 | 30° C | 62% | 1013 hPa | 0 mm | - | 668 W/m² | - |
| 1777649998 | 30° C | 61% | 1013.1 hPa | 0 mm | - | 659 W/m² | - |
| 1777649695 | 29.44° C | 63% | 1013 hPa | 0 mm | - | 638 W/m² | - |
| 1777649390 | 29.44° C | 63% | 1012.8 hPa | 0 mm | - | 682 W/m² | - |
| 1777649089 | 29.44° C | 65% | 1013.2 hPa | 0 mm | - | 630 W/m² | - |
| 1777648786 | 29.44° C | 65% | 1013 hPa | 0 mm | - | 613 W/m² | - |
| 1777648483 | 29.44° C | 65% | 1013 hPa | 0 mm | - | 592 W/m² | - |
| 1777648179 | 29.44° C | 66% | 1012.8 hPa | 0 mm | - | 571 W/m² | - |
| 1777647874 | 28.89° C | 68% | 1012.9 hPa | 0 mm | - | 579 W/m² | - |
| 1777647571 | 28.89° C | 68% | 1012.8 hPa | 0 mm | - | 556 W/m² | - |
| 1777647267 | 28.33° C | 71% | 1013 hPa | 0 mm | - | 424 W/m² | - |
| 1777646966 | 27.78° C | 73% | 1012.9 hPa | 0 mm | - | 545 W/m² | - |
| 1777646661 | 28.33° C | 70% | 1012.8 hPa | 0 mm | - | 523 W/m² | - |
| 1777646356 | 28.33° C | 72% | 1013.1 hPa | 0 mm | - | 517 W/m² | - |
| 1777646052 | 28.89° C | 71% | 1013 hPa | 0 mm | - | 484 W/m² | - |
| 1777645750 | 28.33° C | 72% | 1012.6 hPa | 0 mm | - | 485 W/m² | - |
| 1777645447 | 28.33° C | 73% | 1012.8 hPa | 0 mm | - | 489 W/m² | - |
| 1777645142 | 27.78° C | 74% | 1012.8 hPa | 0 mm | - | 450 W/m² | - |
| 1777644839 | 27.78° C | 73% | 1012.9 hPa | 0 mm | - | 423 W/m² | - |
| 1777644537 | 27.22° C | 78% | 1012.7 hPa | 0 mm | - | 421 W/m² | - |
| 1777644227 | 27.22° C | 78% | 1012.6 hPa | 0 mm | - | 406 W/m² | - |
| 1777643924 | 27.22° C | 77% | 1012.6 hPa | 0 mm | - | 392 W/m² | - |
| 1777643622 | 26.67° C | 79% | 1012.8 hPa | 0 mm | - | 388 W/m² | - |
* Rain latest hour (hover to see other rain measurements)
** Current wind speed in m/s (hover to see current wind gust speed)